Time;durP1;ratioP1;P1;durP2;ratioP2;P2;SDS_P1;SDS_P2;PMS_P1;PMS_P2;Temp;Humidity;BMP_temperature;BMP_pressure;BME280_temperature;BME280_humidity;BME280_pressure;Samples;Min_cycle;Max_cycle;Signal;HPM_P1;HPM_P2
2021/05/30 00:01:07;;;;;;;3.13;2.00;;;16.90;99.90;;;;;;5070930;28;20476;-68
2021/05/30 00:03:33;;;;;;;6.40;2.10;;;16.80;99.90;;;;;;5047054;28;20082;-68
2021/05/30 00:05:59;;;;;;;3.08;1.88;;;16.60;99.90;;;;;;5052260;28;20064;-67
2021/05/30 00:08:25;;;;;;;5.65;2.35;;;16.70;99.90;;;;;;5062199;28;20380;-67
2021/05/30 00:10:51;;;;;;;2.70;2.17;;;16.70;99.90;;;;;;5052298;28;20059;-67
2021/05/30 00:13:18;;;;;;;2.78;2.00;;;16.60;99.90;;;;;;5061069;28;20023;-67
2021/05/30 00:15:45;;;;;;;2.33;2.13;;;16.70;99.90;;;;;;5053944;28;20021;-68
2021/05/30 00:18:11;;;;;;;2.42;2.10;;;16.80;99.90;;;;;;5060362;28;20024;-67
2021/05/30 00:20:36;;;;;;;4.97;1.92;;;16.80;99.90;;;;;;5054800;28;20029;-67
2021/05/30 00:23:02;;;;;;;4.57;2.22;;;16.70;99.90;;;;;;5058269;28;20059;-67
2021/05/30 00:25:28;;;;;;;2.35;2.15;;;16.60;99.90;;;;;;5055630;28;20037;-68
2021/05/30 00:27:53;;;;;;;2.60;1.95;;;16.70;99.90;;;;;;5036237;28;20033;-68
2021/05/30 00:30:19;;;;;;;2.20;2.00;;;16.50;99.90;;;;;;5051939;28;20037;-69
2021/05/30 00:32:46;;;;;;;2.00;1.90;;;16.50;99.90;;;;;;5056562;28;20024;-68
2021/05/30 00:35:11;;;;;;;2.35;2.15;;;16.50;99.90;;;;;;5058127;28;20028;-69
2021/05/30 00:37:37;;;;;;;2.50;2.30;;;16.50;99.90;;;;;;5054618;28;20053;-68
2021/05/30 00:40:03;;;;;;;2.17;1.90;;;16.40;99.90;;;;;;5059548;28;20025;-68
2021/05/30 00:42:29;;;;;;;5.13;2.28;;;16.60;99.90;;;;;;5053541;28;20035;-68
2021/05/30 00:44:55;;;;;;;3.50;2.13;;;16.40;99.90;;;;;;5060420;28;20080;-69
2021/05/30 00:47:21;;;;;;;2.40;2.20;;;16.40;99.90;;;;;;5054087;28;20029;-69
2021/05/30 00:49:46;;;;;;;2.30;2.10;;;16.30;99.90;;;;;;5060340;28;20027;-68
2021/05/30 00:52:12;;;;;;;2.40;2.20;;;16.10;99.90;;;;;;5053330;28;20404;-67
2021/05/30 00:54:39;;;;;;;3.20;2.05;;;16.10;99.90;;;;;;5060239;28;20025;-68
2021/05/30 00:57:13;;;;;;;1.85;1.75;;;16.20;99.90;;;;;;5053670;28;20025;-68
2021/05/30 00:59:41;;;;;;;2.65;2.00;;;16.30;99.90;;;;;;5060057;28;20036;-69
2021/05/30 01:02:06;;;;;;;2.45;2.05;;;16.10;99.90;;;;;;5053723;28;20052;-68
2021/05/30 01:04:32;;;;;;;3.90;2.30;;;16.20;99.90;;;;;;5060306;28;20440;-69
2021/05/30 01:06:58;;;;;;;2.08;1.98;;;16.00;99.90;;;;;;5052777;28;20075;-68
2021/05/30 01:09:25;;;;;;;4.03;2.40;;;16.10;99.90;;;;;;5059786;28;20033;-68
2021/05/30 01:11:52;;;;;;;1.67;1.58;;;16.00;99.90;;;;;;5052075;28;20036;-69
2021/05/30 01:14:18;;;;;;;2.25;1.80;;;15.70;99.90;;;;;;5060095;28;20021;-68
2021/05/30 01:16:44;;;;;;;3.55;1.85;;;15.60;99.90;;;;;;5051648;28;20375;-68
2021/05/30 01:19:11;;;;;;;2.45;1.67;;;15.50;99.90;;;;;;5061416;28;20021;-68
2021/05/30 01:21:37;;;;;;;3.67;1.80;;;15.50;99.90;;;;;;5050949;28;20234;-68
2021/05/30 01:24:03;;;;;;;4.57;1.88;;;15.40;99.90;;;;;;5061650;28;20104;-68
2021/05/30 01:26:29;;;;;;;5.55;2.20;;;15.50;99.90;;;;;;5050194;28;20108;-68
2021/05/30 01:28:55;;;;;;;3.40;2.13;;;15.70;99.90;;;;;;5061835;28;20143;-68
2021/05/30 01:31:21;;;;;;;3.85;2.30;;;15.50;99.90;;;;;;5050545;28;20482;-70
2021/05/30 01:33:47;;;;;;;2.65;1.83;;;15.60;99.90;;;;;;5060801;28;20416;-68
2021/05/30 01:36:14;;;;;;;3.20;2.35;;;15.60;99.90;;;;;;5032771;28;20120;-68
2021/05/30 01:38:39;;;;;;;6.10;2.22;;;15.60;99.90;;;;;;5061224;28;20072;-68
2021/05/30 01:41:05;;;;;;;5.75;2.13;;;15.70;99.90;;;;;;5050316;28;20048;-68
2021/05/30 01:43:31;;;;;;;5.63;2.65;;;15.60;99.90;;;;;;5061085;28;20079;-68
2021/05/30 01:45:59;;;;;;;2.92;2.00;;;15.50;99.90;;;;;;5050487;28;20032;-68
2021/05/30 01:48:25;;;;;;;3.78;2.35;;;15.60;99.90;;;;;;5060162;28;20021;-68
2021/05/30 01:50:50;;;;;;;5.13;2.40;;;15.50;99.90;;;;;;5051525;28;20032;-68
2021/05/30 01:53:18;;;;;;;3.92;1.63;;;15.40;99.90;;;;;;5058457;28;20020;-68
2021/05/30 01:58:21;;;;;;;3.45;1.98;;;15.30;99.90;;;;;;5059365;28;20054;-69
2021/05/30 02:00:49;;;;;;;3.50;2.00;;;15.10;99.90;;;;;;5051884;28;20477;-68
2021/05/30 02:03:15;;;;;;;3.22;2.13;;;15.10;99.90;;;;;;5058584;28;20467;-68
2021/05/30 02:05:45;;;;;;;2.28;1.98;;;15.10;99.90;;;;;;5052448;28;20013;-69
2021/05/30 02:08:11;;;;;;;2.67;2.10;;;15.20;99.90;;;;;;5057557;28;20032;-68
2021/05/30 02:10:37;;;;;;;3.85;2.30;;;15.30;99.90;;;;;;5052490;28;20032;-68
2021/05/30 02:13:05;;;;;;;4.70;2.00;;;15.50;99.90;;;;;;5056586;28;20063;-68
2021/05/30 02:15:31;;;;;;;6.03;2.65;;;15.50;99.90;;;;;;5053706;28;20028;-68
2021/05/30 02:17:57;;;;;;;4.25;2.00;;;15.40;99.90;;;;;;5055987;28;20029;-68
2021/05/30 02:20:37;;;;;;;2.28;2.05;;;15.30;99.90;;;;;;5055119;28;20021;-68
2021/05/30 02:23:04;;;;;;;1.95;1.80;;;15.00;99.90;;;;;;5056273;28;20022;-68
2021/05/30 02:25:31;;;;;;;2.70;2.05;;;14.90;99.90;;;;;;5053284;28;20036;-68
2021/05/30 02:27:57;;;;;;;6.28;2.00;;;15.00;99.90;;;;;;5055643;28;20529;-68
2021/05/30 02:30:23;;;;;;;2.55;2.35;;;15.10;99.90;;;;;;5054901;28;20059;-69
2021/05/30 02:32:50;;;;;;;3.92;1.95;;;15.10;99.90;;;;;;5054474;28;20505;-69
2021/05/30 02:35:16;;;;;;;2.22;1.92;;;15.00;99.90;;;;;;5055942;28;20028;-69
2021/05/30 02:37:42;;;;;;;2.85;2.10;;;15.00;99.90;;;;;;5052934;28;20045;-68
2021/05/30 02:40:09;;;;;;;4.90;2.13;;;15.00;99.90;;;;;;5056567;28;20021;-69
2021/05/30 02:42:35;;;;;;;5.90;2.33;;;15.00;99.90;;;;;;5034512;28;20021;-69
2021/05/30 02:45:01;;;;;;;2.97;2.67;;;15.00;99.90;;;;;;5057971;28;20489;-68
2021/05/30 02:47:27;;;;;;;4.45;2.15;;;15.00;99.90;;;;;;5056042;28;20033;-68
2021/05/30 02:49:52;;;;;;;2.95;2.10;;;15.00;99.90;;;;;;5062656;28;20034;-68
2021/05/30 02:52:18;;;;;;;3.15;1.88;;;15.00;99.90;;;;;;5055778;28;20043;-68
2021/05/30 02:54:44;;;;;;;4.03;1.95;;;14.90;99.90;;;;;;5062466;28;20024;-68
2021/05/30 02:57:09;;;;;;;2.75;1.98;;;14.90;99.90;;;;;;5055656;28;20107;-69
2021/05/30 02:59:35;;;;;;;6.38;3.00;;;15.10;99.90;;;;;;5062364;28;20186;-68
2021/05/30 03:02:01;;;;;;;3.78;2.78;;;15.10;99.90;;;;;;5055769;28;20025;-68
2021/05/30 03:04:26;;;;;;;2.58;2.35;;;15.00;99.90;;;;;;5062343;28;20032;-68
2021/05/30 03:06:52;;;;;;;5.18;2.70;;;14.90;99.90;;;;;;5054859;28;20504;-70
2021/05/30 03:09:18;;;;;;;2.97;2.63;;;14.90;99.90;;;;;;5062969;28;20086;-68
2021/05/30 03:11:44;;;;;;;4.82;2.33;;;14.90;99.90;;;;;;5053058;28;20040;-68
2021/05/30 03:14:10;;;;;;;2.72;2.17;;;14.80;99.90;;;;;;5064023;28;20032;-68
2021/05/30 03:16:36;;;;;;;3.65;2.40;;;14.70;99.90;;;;;;5053562;28;20036;-69
2021/05/30 03:19:02;;;;;;;4.30;1.90;;;14.60;99.90;;;;;;5064179;28;20096;-68
2021/05/30 03:21:27;;;;;;;1.27;1.15;;;14.50;99.90;;;;;;5053249;28;20108;-69
2021/05/30 03:23:53;;;;;;;2.80;1.70;;;14.30;99.90;;;;;;5064159;28;20020;-68
2021/05/30 03:26:19;;;;;;;4.30;2.67;;;14.50;99.90;;;;;;5052859;28;20551;-68
2021/05/30 03:28:44;;;;;;;8.20;3.75;;;14.60;99.90;;;;;;5064305;28;20028;-68
2021/05/30 03:31:10;;;;;;;6.63;3.35;;;14.60;99.90;;;;;;5053080;28;20043;-68
2021/05/30 03:33:36;;;;;;;5.88;3.42;;;14.70;99.90;;;;;;5063988;28;20104;-69
2021/05/30 03:36:05;;;;;;;6.50;3.63;;;14.80;99.90;;;;;;5052686;28;20090;-69
2021/05/30 03:38:32;;;;;;;6.60;4.20;;;14.90;99.90;;;;;;5062679;28;20131;-69
2021/05/30 03:41:09;;;;;;;9.93;3.90;;;14.80;99.90;;;;;;5053018;28;20024;-69
2021/05/30 03:43:35;;;;;;;4.45;3.67;;;14.80;99.90;;;;;;5042356;28;20025;-68
2021/05/30 03:46:01;;;;;;;6.63;3.55;;;14.70;99.90;;;;;;5053448;28;20516;-69
2021/05/30 03:48:27;;;;;;;9.73;5.00;;;14.70;99.90;;;;;;5062480;28;20032;-69
2021/05/30 03:50:53;;;;;;;7.18;4.80;;;14.70;99.90;;;;;;5053673;28;20029;-69
2021/05/30 03:53:25;;;;;;;5.57;5.07;;;14.70;99.90;;;;;;5061472;28;20090;-69
2021/05/30 03:55:50;;;;;;;6.22;3.85;;;14.90;99.90;;;;;;5053430;28;20051;-69
2021/05/30 03:58:17;;;;;;;8.45;4.88;;;14.80;99.90;;;;;;5059776;28;20103;-69
2021/05/30 04:00:43;;;;;;;5.70;4.00;;;14.80;99.90;;;;;;5054844;28;20064;-69
2021/05/30 04:03:10;;;;;;;6.20;4.30;;;14.70;99.90;;;;;;5059926;28;20033;-69
2021/05/30 04:05:36;;;;;;;9.27;5.32;;;14.80;99.90;;;;;;5055755;28;20025;-68
2021/05/30 04:08:02;;;;;;;12.10;4.15;;;14.60;99.90;;;;;;5058282;28;20025;-69
2021/05/30 04:10:28;;;;;;;7.45;4.68;;;14.60;99.90;;;;;;5056580;28;20032;-68
2021/05/30 04:12:53;;;;;;;6.70;4.50;;;14.80;99.90;;;;;;5057052;28;20024;-69
2021/05/30 04:15:20;;;;;;;7.97;4.88;;;14.80;99.90;;;;;;5058185;28;20024;-68
2021/05/30 04:17:45;;;;;;;5.32;4.70;;;14.80;99.90;;;;;;5056440;28;20097;-68
2021/05/30 04:20:15;;;;;;;10.75;3.35;;;14.70;99.90;;;;;;5058803;28;20052;-67
2021/05/30 04:22:41;;;;;;;5.55;4.70;;;14.60;99.90;;;;;;5055241;28;20047;-69
2021/05/30 04:25:08;;;;;;;6.50;5.03;;;14.60;99.90;;;;;;5059803;28;20021;-69
2021/05/30 04:27:37;;;;;;;6.45;4.80;;;14.60;99.90;;;;;;5054121;28;20090;-68
2021/05/30 04:30:05;;;;;;;6.05;3.90;;;14.50;99.90;;;;;;5059759;28;20024;-69
2021/05/30 04:32:31;;;;;;;6.28;4.00;;;14.60;99.90;;;;;;5054356;28;20484;-68
2021/05/30 04:34:56;;;;;;;14.65;4.97;;;14.70;99.90;;;;;;5060779;28;20186;-69
2021/05/30 04:37:22;;;;;;;9.20;5.95;;;14.70;99.90;;;;;;5053215;28;20041;-70
2021/05/30 04:39:48;;;;;;;5.82;5.32;;;14.80;99.90;;;;;;5060800;28;20029;-69
2021/05/30 04:42:13;;;;;;;7.82;5.65;;;14.80;99.90;;;;;;5053585;28;20032;-69
2021/05/30 04:44:39;;;;;;;8.13;5.80;;;14.70;99.90;;;;;;5060310;28;20635;-69
2021/05/30 04:47:05;;;;;;;7.63;6.38;;;14.70;99.90;;;;;;5054097;28;20028;-69
2021/05/30 04:49:30;;;;;;;6.80;6.13;;;14.60;99.90;;;;;;5060495;28;20520;-69
2021/05/30 04:51:56;;;;;;;6.05;4.13;;;14.70;99.90;;;;;;5052471;28;20033;-69
2021/05/30 04:54:22;;;;;;;10.68;5.55;;;14.80;99.90;;;;;;5060642;28;20028;-69
2021/05/30 04:56:47;;;;;;;5.55;5.13;;;14.80;99.90;;;;;;5051594;28;20108;-69
2021/05/30 04:59:13;;;;;;;8.50;4.90;;;14.60;99.90;;;;;;5061939;28;20021;-68
2021/05/30 05:01:38;;;;;;;10.52;6.75;;;14.80;99.90;;;;;;5051557;28;20035;-68
2021/05/30 05:04:04;;;;;;;18.38;7.38;;;14.90;99.90;;;;;;5062312;28;20017;-69
2021/05/30 05:06:30;;;;;;;9.05;6.63;;;14.90;99.90;;;;;;5050819;28;20037;-69
2021/05/30 05:08:55;;;;;;;12.18;8.73;;;14.80;99.90;;;;;;5059042;28;20037;-69
2021/05/30 05:11:21;;;;;;;18.42;10.88;;;14.80;99.90;;;;;;5070582;28;20033;-70
2021/05/30 05:13:47;;;;;;;23.33;11.15;;;14.90;99.90;;;;;;5063047;28;20016;-69
2021/05/30 05:16:13;;;;;;;21.63;12.35;;;14.80;99.90;;;;;;5051134;28;20104;-69
2021/05/30 05:18:39;;;;;;;24.70;12.30;;;14.90;99.90;;;;;;5061957;28;20021;-69
2021/05/30 05:21:05;;;;;;;22.55;11.43;;;14.90;99.90;;;;;;5050992;28;20028;-68
2021/05/30 05:23:32;;;;;;;21.13;12.20;;;14.90;99.90;;;;;;5060684;28;20028;-70
2021/05/30 05:26:03;;;;;;;18.60;11.75;;;15.00;99.90;;;;;;5050807;28;20027;-69
2021/05/30 05:28:31;;;;;;;22.98;11.73;;;15.00;99.90;;;;;;5060182;28;20052;-68
2021/05/30 05:30:57;;;;;;;19.35;12.38;;;15.10;99.90;;;;;;5051665;28;20032;-69
2021/05/30 05:33:24;;;;;;;19.85;11.15;;;15.30;99.90;;;;;;5059858;28;20073;-68
2021/05/30 05:35:50;;;;;;;15.65;10.70;;;15.30;99.90;;;;;;5052426;28;20021;-69
2021/05/30 05:38:16;;;;;;;13.07;10.77;;;15.30;99.90;;;;;;5057763;28;20055;-69
2021/05/30 05:40:43;;;;;;;17.63;11.27;;;15.40;99.90;;;;;;5052783;28;20067;-68
2021/05/30 05:43:09;;;;;;;20.17;10.63;;;15.20;99.90;;;;;;5057624;28;20082;-69
2021/05/30 05:45:35;;;;;;;18.60;10.77;;;15.40;99.90;;;;;;5054627;28;20052;-69
2021/05/30 05:48:02;;;;;;;17.52;11.30;;;15.40;99.90;;;;;;5056315;28;20634;-69
2021/05/30 05:50:29;;;;;;;14.60;10.40;;;15.30;99.90;;;;;;5055162;28;20025;-69
2021/05/30 05:52:55;;;;;;;19.95;11.05;;;15.40;99.90;;;;;;5055073;28;20046;-69
2021/05/30 05:55:22;;;;;;;17.05;9.95;;;15.50;99.90;;;;;;5055978;28;20025;-69
2021/05/30 05:57:49;;;;;;;18.73;10.45;;;15.60;99.90;;;;;;5054018;28;20116;-69
2021/05/30 06:00:18;;;;;;;22.15;10.85;;;15.80;99.90;;;;;;5056997;28;20017;-69
2021/05/30 06:02:46;;;;;;;15.20;9.95;;;15.70;99.90;;;;;;5054076;28;20049;-70
2021/05/30 06:05:17;;;;;;;18.17;9.18;;;15.80;99.90;;;;;;5057093;28;20032;-69
2021/05/30 06:07:43;;;;;;;15.80;9.45;;;15.80;99.90;;;;;;5052906;28;20067;-69
2021/05/30 06:10:10;;;;;;;11.52;9.65;;;15.90;99.90;;;;;;5057702;28;20513;-69
2021/05/30 06:12:36;;;;;;;14.10;8.98;;;15.80;99.90;;;;;;5052426;28;20047;-69
2021/05/30 06:15:02;;;;;;;12.77;9.30;;;15.90;99.90;;;;;;5058286;28;20021;-70
2021/05/30 06:17:27;;;;;;;10.85;9.60;;;15.80;99.90;;;;;;5052555;28;20029;-70
2021/05/30 06:19:53;;;;;;;12.30;9.45;;;15.90;99.90;;;;;;5058474;28;20392;-69
2021/05/30 06:22:19;;;;;;;13.93;9.45;;;16.00;99.90;;;;;;5051775;28;20036;-70
2021/05/30 06:24:45;;;;;;;13.35;9.20;;;16.10;99.90;;;;;;5058994;28;20024;-70
2021/05/30 06:27:11;;;;;;;16.52;9.35;;;16.30;99.90;;;;;;5051635;28;20032;-69
2021/05/30 06:29:37;;;;;;;15.32;9.68;;;16.30;99.90;;;;;;5058546;28;20013;-69
2021/05/30 06:32:03;;;;;;;17.52;9.57;;;16.30;99.90;;;;;;5052054;28;20090;-68
2021/05/30 06:34:29;;;;;;;13.75;9.10;;;16.40;99.90;;;;;;5058533;28;20496;-69
2021/05/30 06:36:55;;;;;;;11.18;8.45;;;16.50;99.90;;;;;;5050106;28;20045;-69
2021/05/30 06:39:22;;;;;;;14.38;9.65;;;16.50;99.90;;;;;;5059267;28;20025;-69
2021/05/30 06:41:48;;;;;;;11.60;8.48;;;16.50;99.90;;;;;;5049509;28;20090;-69
2021/05/30 06:44:14;;;;;;;11.95;8.35;;;16.60;99.90;;;;;;5060353;28;20021;-70
2021/05/30 06:46:39;;;;;;;11.63;9.25;;;16.70;99.90;;;;;;5050101;28;20036;-69
2021/05/30 06:49:05;;;;;;;12.75;9.25;;;16.80;99.90;;;;;;5060648;28;20452;-69
2021/05/30 06:51:32;;;;;;;11.05;8.60;;;16.80;99.90;;;;;;5049115;28;20076;-70
2021/05/30 06:54:00;;;;;;;9.93;8.07;;;16.60;99.90;;;;;;5057246;28;20017;-69
2021/05/30 06:56:26;;;;;;;11.63;7.72;;;16.80;99.90;;;;;;5069442;28;20017;-70
2021/05/30 06:58:52;;;;;;;10.25;8.15;;;17.00;99.90;;;;;;5060997;28;20020;-69
2021/05/30 07:01:19;;;;;;;8.38;7.60;;;17.10;99.90;;;;;;5049324;28;20032;-69
2021/05/30 07:03:46;;;;;;;11.13;7.78;;;17.10;99.90;;;;;;5060494;28;20036;-69
2021/05/30 07:06:11;;;;;;;10.98;7.63;;;17.10;99.90;;;;;;5049511;28;20036;-68
2021/05/30 07:08:37;;;;;;;13.60;8.07;;;17.10;99.90;;;;;;5059923;28;20020;-69
2021/05/30 07:11:03;;;;;;;10.98;8.07;;;17.10;99.90;;;;;;5048985;28;20060;-69
2021/05/30 07:13:29;;;;;;;10.60;7.70;;;17.20;99.90;;;;;;5058678;28;20029;-68
2021/05/30 07:15:55;;;;;;;10.70;7.82;;;17.20;99.90;;;;;;5050986;28;20381;-69
2021/05/30 07:18:22;;;;;;;8.48;7.05;;;17.40;99.90;;;;;;5057583;28;20441;-69
2021/05/30 07:20:48;;;;;;;12.02;7.30;;;17.50;99.90;;;;;;5051659;28;20017;-69
2021/05/30 07:23:15;;;;;;;10.65;7.15;;;17.50;99.90;;;;;;5056355;28;20028;-68
2021/05/30 07:25:41;;;;;;;8.13;7.32;;;17.60;99.90;;;;;;5052207;28;20485;-69
2021/05/30 07:28:08;;;;;;;7.90;6.93;;;17.60;99.90;;;;;;5055618;28;20025;-68
2021/05/30 07:30:34;;;;;;;8.32;7.05;;;17.60;99.90;;;;;;5053578;28;20072;-69
2021/05/30 07:33:01;;;;;;;8.25;6.57;;;17.80;99.90;;;;;;5056966;28;20107;-72
2021/05/30 07:35:28;;;;;;;10.80;6.78;;;17.80;99.90;;;;;;5058302;28;20025;-69
2021/05/30 07:37:54;;;;;;;10.77;6.93;;;17.80;99.90;;;;;;5056748;28;20049;-68
2021/05/30 07:40:20;;;;;;;9.75;7.25;;;17.80;99.90;;;;;;5058607;28;20555;-68
2021/05/30 07:42:46;;;;;;;8.43;7.28;;;17.90;99.90;;;;;;5055270;28;20136;-68
2021/05/30 07:45:13;;;;;;;9.35;6.90;;;18.20;99.90;;;;;;5060539;28;20521;-70
2021/05/30 07:47:39;;;;;;;11.23;6.50;;;18.30;99.90;;;;;;5055237;28;20040;-69
2021/05/30 07:50:06;;;;;;;12.00;6.68;;;18.40;99.90;;;;;;5051288;28;20044;-68
2021/05/30 07:52:32;;;;;;;7.82;6.32;;;18.50;99.90;;;;;;5054462;28;20044;-68
2021/05/30 07:54:57;;;;;;;10.57;6.28;;;18.70;99.90;;;;;;5061411;28;20035;-69
2021/05/30 07:57:23;;;;;;;9.27;6.15;;;18.50;99.90;;;;;;5054220;28;20028;-67
2021/05/30 07:59:49;;;;;;;10.43;6.93;;;18.80;99.90;;;;;;5061287;28;20029;-68
2021/05/30 08:02:14;;;;;;;9.93;6.47;;;18.60;99.90;;;;;;5054687;28;20052;-67
2021/05/30 08:04:40;;;;;;;8.48;5.97;;;18.70;99.90;;;;;;5061414;28;20100;-68
2021/05/30 08:07:06;;;;;;;6.60;5.97;;;18.90;99.90;;;;;;5054255;28;20017;-69
2021/05/30 08:09:31;;;;;;;6.50;5.90;;;19.00;99.90;;;;;;5061073;28;20107;-68
2021/05/30 08:11:58;;;;;;;7.00;5.70;;;19.10;99.90;;;;;;5053012;28;20043;-68
2021/05/30 08:14:25;;;;;;;6.82;5.93;;;19.10;99.90;;;;;;5061755;28;20478;-68
2021/05/30 08:16:51;;;;;;;8.75;5.63;;;19.20;99.90;;;;;;5052421;28;20408;-69
2021/05/30 08:19:16;;;;;;;10.30;6.45;;;19.20;99.90;;;;;;5063063;28;20017;-68
2021/05/30 08:21:43;;;;;;;6.90;6.28;;;19.10;99.90;;;;;;5051986;28;20021;-68
2021/05/30 08:24:10;;;;;;;7.53;6.35;;;19.20;99.90;;;;;;5063008;28;20059;-68
2021/05/30 08:26:36;;;;;;;6.60;6.10;;;19.40;99.90;;;;;;5050044;28;20029;-68
2021/05/30 08:29:02;;;;;;;6.97;6.28;;;19.60;99.90;;;;;;5063103;28;20636;-68
2021/05/30 08:31:27;;;;;;;11.07;6.80;;;19.90;99.90;;;;;;5052239;28;20033;-68
2021/05/30 08:33:53;;;;;;;8.15;6.47;;;19.70;99.90;;;;;;5063092;28;20023;-68
2021/05/30 08:36:19;;;;;;;8.65;6.72;;;19.70;99.90;;;;;;5051547;28;20501;-69
2021/05/30 08:38:44;;;;;;;7.35;6.57;;;19.70;99.90;;;;;;5062705;28;20081;-68
2021/05/30 08:41:11;;;;;;;9.98;7.22;;;19.70;99.90;;;;;;5051411;28;20508;-68
2021/05/30 08:43:37;;;;;;;7.50;6.65;;;19.70;99.90;;;;;;5061635;28;20381;-68
2021/05/30 08:46:03;;;;;;;8.50;6.72;;;20.20;99.90;;;;;;5052407;28;20017;-68
2021/05/30 08:48:29;;;;;;;7.97;7.18;;;20.20;99.90;;;;;;5060823;28;20031;-69
2021/05/30 08:51:04;;;;;;;9.00;6.75;;;20.10;99.90;;;;;;5053318;28;20048;-69
2021/05/30 08:53:41;;;;;;;10.48;5.90;;;20.30;99.90;;;;;;5060684;28;20029;-68
2021/05/30 08:56:09;;;;;;;6.97;5.85;;;20.50;99.90;;;;;;5051327;28;20075;-68
2021/05/30 08:58:41;;;;;;;11.70;4.95;;;20.60;99.90;;;;;;5061429;28;20025;-69
2021/05/30 09:01:23;;;;;;;9.35;5.65;;;20.90;99.90;;;;;;5051335;28;20025;-68
2021/05/30 09:04:06;;;;;;;10.57;5.32;;;21.20;99.90;;;;;;5062124;28;20020;-68
2021/05/30 09:06:37;;;;;;;10.75;6.18;;;21.10;99.90;;;;;;5050934;28;20029;-68
2021/05/30 09:09:07;;;;;;;9.85;6.22;;;21.00;99.90;;;;;;5062403;28;20114;-69
2021/05/30 09:11:52;;;;;;;8.70;5.78;;;20.70;99.90;;;;;;5050701;28;20079;-68
2021/05/30 09:14:25;;;;;;;6.05;5.22;;;20.70;99.90;;;;;;5059827;28;20021;-70
2021/05/30 09:16:53;;;;;;;7.68;5.40;;;21.00;99.90;;;;;;5069301;28;20021;-68
2021/05/30 09:19:31;;;;;;;8.18;5.70;;;21.30;99.90;;;;;;5061735;28;20028;-70
2021/05/30 09:22:27;;;;;;;5.45;4.85;;;21.40;99.90;;;;;;5051198;28;20064;-68
2021/05/30 09:25:21;;;;;;;7.15;5.82;;;21.70;99.90;;;;;;5059521;28;20097;-69
2021/05/30 09:27:59;;;;;;;8.15;5.45;;;21.40;99.90;;;;;;5053948;28;20147;-68
2021/05/30 09:30:42;;;;;;;6.93;5.57;;;21.40;99.90;;;;;;5056410;28;20477;-68
2021/05/30 09:33:19;;;;;;;8.13;5.13;;;21.30;99.90;;;;;;5057059;28;20036;-68
2021/05/30 09:35:51;;;;;;;6.03;4.82;;;21.60;99.90;;;;;;5053945;28;20017;-68
2021/05/30 09:38:29;;;;;;;6.57;4.75;;;22.10;99.90;;;;;;5057609;28;20052;-69
2021/05/30 09:40:58;;;;;;;5.82;4.70;;;21.80;99.90;;;;;;5051484;28;20032;-68
2021/05/30 09:43:29;;;;;;;5.63;4.60;;;21.80;99.90;;;;;;5058827;28;20120;-68
2021/05/30 09:46:05;;;;;;;6.70;4.75;;;21.90;99.90;;;;;;5052513;28;20031;-68
2021/05/30 09:48:32;;;;;;;5.75;4.22;;;22.10;99.90;;;;;;5060027;28;20094;-68
2021/05/30 09:51:06;;;;;;;5.57;4.85;;;22.50;99.90;;;;;;5051787;28;20025;-68
2021/05/30 09:53:33;;;;;;;5.35;4.57;;;22.70;99.90;;;;;;5059553;28;20033;-69
2021/05/30 09:55:58;;;;;;;6.93;4.50;;;22.80;99.90;;;;;;5050621;28;20017;-68
2021/05/30 09:58:24;;;;;;;5.07;4.20;;;22.80;99.90;;;;;;5058863;28;20608;-68
2021/05/30 10:00:58;;;;;;;11.10;4.10;;;23.00;99.90;;;;;;5052399;28;20029;-69
2021/05/30 10:03:24;;;;;;;4.45;3.70;;;23.00;99.90;;;;;;5058621;28;20024;-69
2021/05/30 10:05:50;;;;;;;4.18;3.80;;;23.00;99.90;;;;;;5052908;28;20025;-68
2021/05/30 10:08:16;;;;;;;3.95;3.65;;;23.10;99.90;;;;;;5057103;28;20484;-68
2021/05/30 10:10:42;;;;;;;5.03;3.85;;;23.40;99.90;;;;;;5053285;28;20040;-68
2021/05/30 10:13:10;;;;;;;5.80;3.83;;;23.20;99.90;;;;;;5056252;28;20115;-70
2021/05/30 10:15:36;;;;;;;4.00;3.53;;;23.30;99.90;;;;;;5054658;28;20021;-69
2021/05/30 10:18:19;;;;;;;7.88;3.80;;;23.40;99.90;;;;;;5055289;28;20024;-69
2021/05/30 10:20:46;;;;;;;4.00;3.63;;;23.80;99.90;;;;;;5053596;28;20095;-69
2021/05/30 10:23:17;;;;;;;4.75;3.22;;;23.80;99.90;;;;;;5056134;28;20021;-69
2021/05/30 10:25:43;;;;;;;6.20;3.20;;;23.80;99.90;;;;;;5053040;28;20021;-68
2021/05/30 10:28:14;;;;;;;5.53;2.90;;;24.00;99.90;;;;;;5055912;28;20593;-69
2021/05/30 10:30:51;;;;;;;3.90;2.78;;;24.20;99.90;;;;;;5053900;28;20517;-68
2021/05/30 10:33:18;;;;;;;2.30;2.15;;;24.20;99.90;;;;;;5057325;28;20044;-68
2021/05/30 10:35:48;;;;;;;4.13;2.80;;;24.30;99.90;;;;;;5053194;28;20036;-68
2021/05/30 10:38:39;;;;;;;2.47;2.28;;;24.20;99.90;;;;;;5055877;28;20143;-68
2021/05/30 10:41:23;;;;;;;2.72;2.53;;;24.60;99.90;;;;;;5049631;28;20060;-68
2021/05/30 10:43:49;;;;;;;3.80;2.40;;;23.90;99.90;;;;;;5060483;28;20021;-68
2021/05/30 10:46:18;;;;;;;2.63;2.40;;;24.50;99.90;;;;;;5049860;28;20025;-69
2021/05/30 10:48:46;;;;;;;4.07;2.50;;;24.50;99.90;;;;;;5060851;28;20039;-68
2021/05/30 10:51:40;;;;;;;2.90;2.70;;;24.70;99.90;;;;;;5049606;28;20108;-69
2021/05/30 10:54:11;;;;;;;5.15;2.72;;;25.10;99.90;;;;;;5057833;28;20047;-69
2021/05/30 10:56:39;;;;;;;3.63;3.28;;;25.20;99.90;;;;;;5069196;28;20025;-69
2021/05/30 10:59:04;;;;;;;3.10;2.85;;;25.00;99.90;;;;;;5060885;28;20023;-68
2021/05/30 11:01:33;;;;;;;4.63;3.10;;;25.10;99.90;;;;;;5031553;28;20033;-68
2021/05/30 11:04:33;;;;;;;5.65;2.50;;;25.00;99.90;;;;;;5060573;28;20027;-69
2021/05/30 11:07:20;;;;;;;1.90;1.80;;;25.40;99.90;;;;;;5052152;28;20021;-68
2021/05/30 11:09:53;;;;;;;2.45;1.60;;;25.20;99.90;;;;;;5062380;28;20032;-69
2021/05/30 11:12:24;;;;;;;2.40;1.98;;;25.10;99.90;;;;;;5055164;28;20044;-68
2021/05/30 11:15:08;;;;;;;2.80;2.08;;;25.40;99.90;;;;;;5061851;28;20085;-68
2021/05/30 11:17:54;;;;;;;2.30;1.92;;;25.70;99.90;;;;;;5055530;28;20107;-69
2021/05/30 11:20:28;;;;;;;;;;;26.10;99.90;;;;;;5066995;28;20103;-68
2021/05/30 11:23:00;;;;;;;2.22;2.03;;;26.50;99.90;;;;;;5066104;28;19920;-69
2021/05/30 11:26:01;;;;;;;5.18;2.72;;;26.00;99.90;;;;;;5058831;28;20381;-69
2021/05/30 11:28:28;;;;;;;4.47;2.47;;;26.10;99.90;;;;;;4931185;29;20122;-68
2021/05/30 11:31:20;;;;;;;2.28;2.08;;;26.40;99.90;;;;;;5032811;28;20029;-69
2021/05/30 11:33:57;;;;;;;3.60;2.35;;;26.70;99.90;;;;;;5059591;28;20048;-69
2021/05/30 11:36:31;;;;;;;2.35;2.00;;;27.40;99.90;;;;;;5052862;28;20047;-68
2021/05/30 11:38:58;;;;;;;3.08;1.73;;;26.80;99.90;;;;;;5063792;28;20024;-70
2021/05/30 11:41:31;;;;;;;1.88;1.40;;;26.80;99.90;;;;;;5052592;28;20061;-69
2021/05/30 11:44:10;;;;;;;4.40;3.40;;;26.70;99.90;;;;;;5063878;28;20079;-69
2021/05/30 11:46:52;;;;;;;1.67;1.58;;;26.90;99.90;;;;;;5053261;28;20428;-69
2021/05/30 11:49:17;;;;;;;1.67;1.58;;;27.00;99.90;;;;;;5063646;28;20482;-69
2021/05/30 11:51:52;;;;;;;2.03;1.83;;;27.20;99.90;;;;;;5052188;28;20148;-66
2021/05/30 11:54:20;;;;;;;2.00;1.90;;;27.60;99.90;;;;;;5063645;28;20496;-67
2021/05/30 11:56:48;;;;;;;2.30;2.10;;;27.60;99.90;;;;;;5052421;28;20535;-69
2021/05/30 11:59:14;;;;;;;3.55;2.33;;;27.70;99.90;;;;;;5063464;28;20532;-69
2021/05/30 12:01:47;;;;;;;2.28;2.08;;;27.40;99.90;;;;;;5052202;28;20033;-67
2021/05/30 12:04:30;;;;;;;3.97;2.22;;;26.30;99.90;;;;;;5063389;28;20021;-66
2021/05/30 12:06:57;;;;;;;3.30;2.13;;;26.60;99.90;;;;;;5052416;28;20553;-69
2021/05/30 12:09:24;;;;;;;4.53;2.10;;;27.00;99.90;;;;;;5062669;28;20028;-68
2021/05/30 12:11:50;;;;;;;2.60;2.08;;;27.40;99.90;;;;;;5051872;28;20033;-68
2021/05/30 12:14:16;;;;;;;3.05;1.67;;;27.20;99.90;;;;;;5063141;28;20025;-69
2021/05/30 12:16:46;;;;;;;4.15;2.00;;;27.40;99.90;;;;;;5051948;28;20025;-69
2021/05/30 12:19:11;;;;;;;3.95;2.05;;;27.70;99.90;;;;;;5062581;28;20390;-69
2021/05/30 12:21:40;;;;;;;3.03;2.17;;;28.10;99.90;;;;;;5051438;28;20091;-67
2021/05/30 12:24:08;;;;;;;1.85;1.70;;;28.60;99.90;;;;;;5063669;28;20082;-66
2021/05/30 12:26:34;;;;;;;1.67;1.58;;;28.90;99.90;;;;;;5051723;28;20017;-66
2021/05/30 12:29:00;;;;;;;2.53;2.00;;;28.30;99.90;;;;;;5062772;28;20059;-66
2021/05/30 12:31:26;;;;;;;1.75;1.65;;;28.40;99.90;;;;;;5052018;28;20037;-67
2021/05/30 12:34:01;;;;;;;2.53;1.67;;;28.20;99.90;;;;;;5062882;28;20032;-66
2021/05/30 12:36:46;;;;;;;2.78;1.90;;;27.80;99.90;;;;;;5051423;28;20029;-67
2021/05/30 12:39:23;;;;;;;4.68;1.88;;;28.40;99.90;;;;;;5062615;28;20040;-66
2021/05/30 12:42:00;;;;;;;1.63;1.52;;;28.90;99.90;;;;;;5051593;28;20037;-67
2021/05/30 12:44:35;;;;;;;2.03;1.55;;;29.10;99.90;;;;;;5061474;28;20469;-66
2021/05/30 12:47:09;;;;;;;1.95;1.75;;;28.90;99.20;;;;;;5069480;28;20508;-67
2021/05/30 12:49:36;;;;;;;1.58;1.45;;;28.70;99.00;;;;;;5060589;28;20029;-66
2021/05/30 12:52:08;;;;;;;2.28;1.63;;;28.60;99.40;;;;;;5052225;28;20032;-66